createdAt,value
2018-11-07T00:01:35.272Z,64.00
2018-11-07T00:06:38.552Z,63.80
2018-11-07T00:11:41.931Z,63.90
2018-11-07T00:16:45.209Z,63.70
2018-11-07T00:21:48.456Z,63.90
2018-11-07T00:26:51.748Z,63.60
2018-11-07T00:31:54.985Z,63.80
2018-11-07T00:36:58.251Z,63.90
2018-11-07T00:42:01.543Z,63.20
2018-11-07T00:47:04.943Z,63.20
2018-11-07T00:52:08.181Z,63.40
2018-11-07T00:57:11.435Z,63.40
2018-11-07T01:02:14.704Z,63.10
2018-11-07T01:07:17.944Z,63.00
2018-11-07T01:12:21.208Z,63.40
2018-11-07T01:17:24.449Z,63.20
2018-11-07T01:22:28.012Z,63.10
2018-11-07T01:27:31.264Z,63.20
2018-11-07T01:32:34.506Z,63.80
2018-11-07T01:37:37.862Z,63.20
2018-11-07T01:42:41.119Z,63.00
2018-11-07T01:47:44.466Z,63.40
2018-11-07T01:52:47.720Z,63.00
2018-11-07T01:57:50.987Z,63.20
2018-11-07T02:02:54.239Z,62.90
2018-11-07T02:07:57.488Z,63.00
2018-11-07T02:13:00.732Z,62.90
2018-11-07T02:18:04.220Z,62.80
2018-11-07T02:23:07.467Z,63.20
2018-11-07T02:28:10.724Z,63.00
2018-11-07T02:33:13.981Z,62.70
2018-11-07T02:38:17.241Z,62.70
2018-11-07T02:43:20.465Z,62.90
2018-11-07T02:48:23.701Z,63.10
2018-11-07T02:53:26.964Z,62.60
2018-11-07T02:58:30.190Z,63.30
2018-11-07T03:03:33.465Z,62.80
2018-11-07T03:08:43.512Z,62.70
2018-11-07T03:13:46.794Z,62.80
2018-11-07T03:18:56.849Z,62.80
2018-11-07T03:24:00.092Z,62.80
2018-11-07T03:29:03.617Z,62.70
2018-11-07T03:34:06.895Z,62.70
2018-11-07T03:39:11.149Z,62.60
2018-11-07T03:44:14.440Z,62.50
2018-11-07T03:49:17.709Z,62.80
2018-11-07T03:54:20.972Z,62.60
2018-11-07T03:59:24.220Z,62.40
2018-11-07T04:04:27.444Z,63.40
2018-11-07T04:09:30.696Z,62.60
2018-11-07T04:14:33.946Z,62.40
2018-11-07T04:19:37.178Z,62.50
2018-11-07T04:24:40.388Z,62.50
2018-11-07T04:29:43.633Z,62.80
2018-11-07T04:34:46.884Z,62.70
2018-11-07T04:39:50.112Z,62.30
2018-11-07T04:44:53.440Z,62.20
2018-11-07T04:49:56.672Z,62.50
2018-11-07T04:54:59.970Z,62.60
2018-11-07T05:00:03.333Z,62.30
2018-11-07T05:05:06.629Z,62.30
2018-11-07T05:10:10.877Z,62.40
2018-11-07T05:15:14.123Z,62.30
2018-11-07T05:20:17.340Z,62.30
2018-11-07T05:25:20.573Z,62.50
2018-11-07T05:30:23.823Z,62.30
2018-11-07T05:35:27.067Z,62.60
2018-11-07T05:40:30.298Z,61.90
2018-11-07T05:45:33.560Z,62.40
2018-11-07T05:50:36.791Z,62.10
2018-11-07T05:55:40.027Z,62.30
2018-11-07T06:00:43.281Z,62.40
2018-11-07T06:15:22.329Z,62.20
2018-11-07T06:20:25.651Z,63.30
2018-11-07T06:25:29.055Z,62.60
2018-11-07T06:30:32.459Z,62.60
2018-11-07T06:35:35.952Z,62.20
2018-11-07T06:40:39.380Z,62.30
2018-11-07T06:45:42.767Z,62.20
2018-11-07T06:50:46.146Z,62.10
2018-11-07T06:55:49.539Z,62.00
2018-11-07T07:00:52.917Z,62.10
2018-11-07T07:05:56.403Z,61.90
2018-11-07T07:10:59.771Z,61.90
2018-11-07T07:16:03.131Z,62.00
2018-11-07T07:21:13.005Z,62.00
2018-11-07T07:26:16.378Z,62.00
2018-11-07T07:31:19.747Z,62.00
2018-11-07T07:36:23.273Z,61.90
2018-11-07T07:41:26.611Z,62.00
2018-11-07T07:46:29.978Z,62.10
2018-11-07T07:51:33.490Z,61.80
2018-11-07T07:56:36.827Z,62.20
2018-11-07T08:01:40.203Z,62.50
2018-11-07T08:06:43.491Z,62.60
2018-11-07T08:11:46.901Z,61.30
2018-11-07T08:16:50.330Z,62.30
2018-11-07T08:22:00.284Z,62.40
2018-11-07T08:27:03.744Z,63.00
2018-11-07T08:32:07.160Z,62.60
2018-11-07T08:37:10.574Z,62.80
2018-11-07T08:42:14.036Z,62.40
2018-11-07T08:52:27.038Z,62.60
2018-11-07T08:57:30.440Z,62.90
2018-11-07T09:02:40.972Z,62.20
2018-11-07T09:07:45.256Z,62.70
2018-11-07T09:12:48.637Z,62.80
2018-11-07T09:17:52.063Z,63.10
2018-11-07T09:22:55.484Z,63.00
2018-11-07T09:27:58.841Z,63.20
2018-11-07T09:33:02.302Z,63.20
2018-11-07T09:38:05.911Z,63.10
2018-11-07T09:43:09.237Z,63.20
2018-11-07T09:48:12.659Z,63.30
2018-11-07T09:53:15.969Z,63.30
2018-11-07T09:58:19.449Z,63.60
2018-11-07T10:03:22.901Z,63.60
2018-11-07T10:08:32.717Z,63.60
2018-11-07T10:13:42.860Z,63.50
2018-11-07T10:18:46.284Z,63.40
2018-11-07T10:23:49.724Z,64.00
2018-11-07T10:28:53.369Z,64.00
2018-11-07T10:33:56.673Z,63.70
2018-11-07T10:39:00.381Z,64.10
2018-11-07T10:44:03.886Z,63.70
2018-11-07T10:49:07.468Z,63.90
2018-11-07T10:54:13.928Z,63.80
2018-11-07T10:59:17.427Z,64.50
2018-11-07T11:04:20.992Z,64.10
2018-11-07T11:09:24.489Z,63.90
2018-11-07T11:14:28.142Z,62.80
2018-11-07T11:19:31.789Z,62.20
2018-11-07T11:24:35.388Z,62.00
2018-11-07T11:29:38.944Z,61.90
2018-11-07T11:34:42.529Z,61.50
2018-11-07T11:39:46.046Z,60.90
2018-11-07T11:44:56.251Z,61.10
2018-11-07T11:49:59.944Z,60.70
2018-11-07T11:55:10.721Z,60.90
2018-11-07T12:00:16.961Z,61.10
2018-11-07T12:05:20.549Z,59.90
2018-11-07T12:10:25.219Z,60.50
2018-11-07T12:15:28.948Z,60.00
2018-11-07T12:20:32.400Z,59.20
2018-11-07T12:25:35.926Z,59.50
2018-11-07T12:30:39.477Z,59.10
2018-11-07T12:35:43.197Z,58.90
2018-11-07T12:40:48.370Z,59.50
2018-11-07T12:45:54.655Z,59.40
2018-11-07T13:00:43.531Z,59.40
2018-11-07T13:05:51.684Z,61.30
2018-11-07T13:10:58.423Z,60.40
2018-11-07T13:16:09.874Z,61.40
2018-11-07T13:21:15.277Z,61.40
2018-11-07T13:26:23.245Z,61.40
2018-11-07T13:31:31.095Z,59.90
2018-11-07T13:36:36.746Z,60.30
2018-11-07T13:41:43.069Z,60.40
2018-11-07T13:46:49.742Z,59.70
2018-11-07T13:51:58.500Z,60.10
2018-11-07T13:57:09.682Z,60.20
2018-11-07T14:02:17.573Z,59.90
2018-11-07T14:07:26.453Z,60.40
2018-11-07T14:12:34.947Z,59.80
2018-11-07T14:17:39.916Z,60.20
2018-11-07T14:22:51.261Z,60.40
2018-11-07T14:27:57.642Z,60.00
2018-11-07T14:33:04.496Z,60.50
2018-11-07T14:38:12.709Z,60.00
2018-11-07T14:43:17.454Z,60.60
2018-11-07T14:48:23.901Z,60.70
2018-11-07T15:03:11.452Z,60.40
2018-11-07T15:08:18.464Z,61.30
2018-11-07T15:13:26.067Z,60.70
2018-11-07T15:23:45.439Z,60.30
2018-11-07T15:28:55.121Z,60.10
2018-11-07T15:34:03.445Z,59.90
2018-11-07T15:39:12.621Z,60.30
2018-11-07T15:44:19.759Z,59.80
2018-11-07T15:49:28.191Z,60.40
2018-11-07T15:54:36.289Z,60.00
2018-11-07T15:59:42.230Z,59.80
2018-11-07T16:04:54.946Z,60.00
2018-11-07T16:10:07.360Z,60.10
2018-11-07T16:15:18.636Z,60.10
2018-11-07T16:20:27.879Z,60.20
2018-11-07T16:25:34.828Z,60.20
2018-11-07T16:30:49.267Z,59.80
2018-11-07T16:35:54.920Z,59.90
2018-11-07T16:41:01.903Z,59.70
2018-11-07T16:46:13.953Z,60.00
2018-11-07T16:51:19.659Z,59.80
2018-11-07T16:56:26.178Z,59.80
2018-11-07T17:01:31.738Z,59.90
2018-11-07T17:06:39.014Z,59.90
2018-11-07T17:11:46.605Z,59.80
2018-11-07T17:16:53.575Z,59.90
2018-11-07T17:21:59.127Z,59.80
2018-11-07T17:27:05.443Z,59.70
2018-11-07T17:32:13.971Z,59.80
2018-11-07T17:42:32.435Z,59.80
2018-11-07T17:47:40.454Z,59.70
2018-11-07T17:52:48.050Z,59.50
2018-11-07T17:58:00.988Z,59.50
2018-11-07T18:03:05.418Z,59.50
2018-11-07T18:08:09.924Z,59.50
2018-11-07T18:13:20.927Z,59.50
2018-11-07T18:18:25.410Z,59.80
2018-11-07T18:23:36.167Z,59.60
2018-11-07T18:28:40.768Z,59.70
2018-11-07T18:33:46.161Z,59.70
2018-11-07T18:38:50.797Z,59.50
2018-11-07T18:43:55.259Z,59.50
2018-11-07T18:48:59.788Z,59.70
2018-11-07T18:54:04.629Z,59.60
2018-11-07T18:59:08.874Z,59.90
2018-11-07T19:04:13.154Z,59.60
2018-11-07T19:09:23.729Z,59.40
2018-11-07T19:14:27.734Z,59.50
2018-11-07T19:19:32.271Z,59.50
2018-11-07T19:24:40.822Z,59.80
2018-11-07T19:29:45.150Z,59.70
2018-11-07T19:34:49.146Z,59.70
2018-11-07T19:39:53.393Z,59.60
2018-11-07T19:44:58.064Z,59.70
2018-11-07T19:50:02.499Z,59.70
2018-11-07T19:55:09.226Z,59.70
2018-11-07T20:00:15.184Z,59.80
2018-11-07T20:05:19.470Z,59.80
2018-11-07T20:10:23.891Z,59.70
2018-11-07T20:16:31.115Z,60.00
2018-11-07T20:21:35.181Z,59.90
2018-11-07T20:26:39.185Z,60.20
2018-11-07T20:31:43.314Z,60.00
2018-11-07T20:36:47.604Z,59.80
2018-11-07T20:41:51.691Z,60.10
2018-11-07T20:46:55.994Z,60.10
2018-11-07T20:52:00.251Z,60.00
2018-11-07T20:57:04.782Z,60.10
2018-11-07T21:02:09.247Z,59.90
2018-11-07T21:07:13.622Z,60.10
2018-11-07T21:12:19.139Z,59.90
2018-11-07T21:17:23.335Z,60.10
2018-11-07T21:22:32.349Z,60.10
2018-11-07T21:28:39.537Z,59.90
2018-11-07T21:33:43.823Z,60.10
2018-11-07T21:38:48.143Z,60.50
2018-11-07T21:43:52.787Z,60.50
2018-11-07T21:48:57.633Z,60.30
2018-11-07T21:54:02.155Z,60.50
2018-11-07T21:59:07.358Z,60.40
2018-11-07T22:04:12.568Z,60.10
2018-11-07T22:09:17.772Z,60.50
2018-11-07T22:14:22.594Z,60.40
2018-11-07T22:19:28.069Z,60.30
2018-11-07T22:24:33.484Z,60.40
2018-11-07T22:29:38.648Z,60.40
2018-11-07T22:34:43.098Z,60.70
2018-11-07T22:39:47.398Z,60.70
2018-11-07T22:44:51.594Z,60.30
2018-11-07T22:49:55.999Z,60.70
2018-11-07T22:55:00.690Z,60.60
2018-11-07T23:00:20.050Z,60.80
2018-11-07T23:05:28.155Z,60.90
2018-11-07T23:10:32.796Z,61.00
2018-11-07T23:15:42.112Z,61.00
2018-11-07T23:21:49.664Z,60.90
2018-11-07T23:26:54.219Z,60.90
2018-11-07T23:31:59.285Z,61.50
2018-11-07T23:37:03.691Z,61.00
2018-11-07T23:42:08.155Z,61.00
2018-11-07T23:47:12.590Z,61.00
2018-11-07T23:52:51.732Z,61.30
2018-11-07T23:57:56.124Z,60.80
